sensor_id;sensor_type;location;lat;lon;timestamp;pressure;altitude;pressure_sealevel;temperature;humidity
58092;BME280;43896;48.178;11.578;2023-03-14T00:01:28;94433.38;;;12.76;61.38
58092;BME280;43896;48.178;11.578;2023-03-14T00:03:53;94429.97;;;12.49;62.40
58092;BME280;43896;48.178;11.578;2023-03-14T00:06:19;94412.09;;;12.51;62.04
58092;BME280;43896;48.178;11.578;2023-03-14T00:08:45;94393.84;;;12.63;61.91
58092;BME280;43896;48.178;11.578;2023-03-14T00:11:16;94395.84;;;12.74;61.53
58092;BME280;43896;48.178;11.578;2023-03-14T00:13:42;94389.34;;;12.76;61.22
58092;BME280;43896;48.178;11.578;2023-03-14T00:16:09;94363.44;;;12.60;61.77
58092;BME280;43896;48.178;11.578;2023-03-14T00:18:35;94349.25;;;12.41;61.58
58092;BME280;43896;48.178;11.578;2023-03-14T00:21:02;94408.81;;;12.75;61.91
58092;BME280;43896;48.178;11.578;2023-03-14T00:23:29;94423.03;;;12.74;62.18
58092;BME280;43896;48.178;11.578;2023-03-14T00:26:09;94411.88;;;12.72;62.12
58092;BME280;43896;48.178;11.578;2023-03-14T00:28:36;94403.19;;;12.59;62.28
58092;BME280;43896;48.178;11.578;2023-03-14T00:31:06;94376.63;;;12.47;62.43
58092;BME280;43896;48.178;11.578;2023-03-14T00:33:32;94377.22;;;12.55;62.35
58092;BME280;43896;48.178;11.578;2023-03-14T00:35:59;94373.75;;;12.62;63.03
58092;BME280;43896;48.178;11.578;2023-03-14T00:38:25;94375.78;;;12.53;62.57
58092;BME280;43896;48.178;11.578;2023-03-14T00:40:51;94389.19;;;12.51;62.85
58092;BME280;43896;48.178;11.578;2023-03-14T00:43:18;94368.94;;;12.25;63.39
58092;BME280;43896;48.178;11.578;2023-03-14T00:45:44;94400.16;;;12.48;63.53
58092;BME280;43896;48.178;11.578;2023-03-14T00:48:09;94388.00;;;12.34;63.03
58092;BME280;43896;48.178;11.578;2023-03-14T00:50:34;94419.22;;;12.57;62.76
58092;BME280;43896;48.178;11.578;2023-03-14T00:53:00;94418.81;;;12.60;63.16
58092;BME280;43896;48.178;11.578;2023-03-14T00:55:25;94382.91;;;12.39;62.94
58092;BME280;43896;48.178;11.578;2023-03-14T00:57:50;94404.41;;;12.56;62.81
58092;BME280;43896;48.178;11.578;2023-03-14T01:00:16;94393.84;;;12.56;63.00
58092;BME280;43896;48.178;11.578;2023-03-14T01:02:41;94393.25;;;12.54;62.88
58092;BME280;43896;48.178;11.578;2023-03-14T01:05:07;94422.63;;;12.71;63.00
58092;BME280;43896;48.178;11.578;2023-03-14T01:07:35;94421.22;;;12.62;63.44
58092;BME280;43896;48.178;11.578;2023-03-14T01:10:00;94413.09;;;12.63;63.42
58092;BME280;43896;48.178;11.578;2023-03-14T01:12:27;94417.78;;;12.48;63.74
58092;BME280;43896;48.178;11.578;2023-03-14T01:14:52;94431.78;;;12.55;64.32
58092;BME280;43896;48.178;11.578;2023-03-14T01:17:18;94418.22;;;12.45;64.77
58092;BME280;43896;48.178;11.578;2023-03-14T01:19:43;94427.53;;;12.47;65.09
58092;BME280;43896;48.178;11.578;2023-03-14T01:22:08;94431.19;;;12.40;65.45
58092;BME280;43896;48.178;11.578;2023-03-14T01:24:33;94440.50;;;12.35;65.35
58092;BME280;43896;48.178;11.578;2023-03-14T01:26:59;94451.25;;;12.54;66.02
58092;BME280;43896;48.178;11.578;2023-03-14T01:29:24;94458.78;;;12.50;66.24
58092;BME280;43896;48.178;11.578;2023-03-14T01:31:49;94443.34;;;12.34;66.86
58092;BME280;43896;48.178;11.578;2023-03-14T01:34:15;94462.00;;;12.46;67.22
58092;BME280;43896;48.178;11.578;2023-03-14T01:36:40;94469.91;;;12.46;67.64
58092;BME280;43896;48.178;11.578;2023-03-14T01:39:05;94446.81;;;12.21;68.75
58092;BME280;43896;48.178;11.578;2023-03-14T01:41:31;94456.75;;;12.12;69.26
58092;BME280;43896;48.178;11.578;2023-03-14T01:43:57;94464.44;;;12.14;69.29
58092;BME280;43896;48.178;11.578;2023-03-14T01:51:27;94454.03;;;11.86;70.13
58092;BME280;43896;48.178;11.578;2023-03-14T01:54:00;94476.94;;;11.85;70.81
58092;BME280;43896;48.178;11.578;2023-03-14T01:56:27;94472.22;;;11.74;71.42
58092;BME280;43896;48.178;11.578;2023-03-14T01:58:53;94472.22;;;11.74;71.20
58092;BME280;43896;48.178;11.578;2023-03-14T02:01:20;94477.31;;;11.82;71.37
58092;BME280;43896;48.178;11.578;2023-03-14T02:03:55;94451.75;;;11.62;71.89
58092;BME280;43896;48.178;11.578;2023-03-14T02:06:27;94475.25;;;11.57;71.38
58092;BME280;43896;48.178;11.578;2023-03-14T02:08:54;94468.69;;;11.33;72.04
58092;BME280;43896;48.178;11.578;2023-03-14T02:11:20;94474.91;;;11.25;72.52
58092;BME280;43896;48.178;11.578;2023-03-14T02:13:46;94438.63;;;11.14;72.82
58092;BME280;43896;48.178;11.578;2023-03-14T02:16:12;94459.59;;;11.42;72.31
58092;BME280;43896;48.178;11.578;2023-03-14T02:18:37;94468.94;;;11.45;71.78
58092;BME280;43896;48.178;11.578;2023-03-14T02:21:11;94434.22;;;11.21;72.18
58092;BME280;43896;48.178;11.578;2023-03-14T02:26:35;94404.78;;;11.04;71.19
58092;BME280;43896;48.178;11.578;2023-03-14T02:29:02;94422.78;;;11.01;71.80
58092;BME280;43896;48.178;11.578;2023-03-14T02:31:27;94404.53;;;10.93;72.27
58092;BME280;43896;48.178;11.578;2023-03-14T02:33:52;94395.06;;;11.05;71.73
58092;BME280;43896;48.178;11.578;2023-03-14T02:36:18;94356.81;;;10.96;71.96
58092;BME280;43896;48.178;11.578;2023-03-14T02:39:19;94359.72;;;11.14;71.52
58092;BME280;43896;48.178;11.578;2023-03-14T02:41:48;94327.69;;;11.04;71.68
58092;BME280;43896;48.178;11.578;2023-03-14T02:44:14;94312.88;;;10.89;72.47
58092;BME280;43896;48.178;11.578;2023-03-14T02:46:39;94286.31;;;10.71;73.45
58092;BME280;43896;48.178;11.578;2023-03-14T02:49:08;94295.44;;;10.75;72.84
58092;BME280;43896;48.178;11.578;2023-03-14T02:51:35;94295.00;;;10.65;73.72
58092;BME280;43896;48.178;11.578;2023-03-14T02:54:01;94282.84;;;10.64;73.14
58092;BME280;43896;48.178;11.578;2023-03-14T02:56:26;94275.97;;;10.63;74.00
58092;BME280;43896;48.178;11.578;2023-03-14T02:58:52;94286.94;;;10.73;72.68
58092;BME280;43896;48.178;11.578;2023-03-14T03:01:17;94288.09;;;10.64;73.19
58092;BME280;43896;48.178;11.578;2023-03-14T03:03:43;94288.34;;;10.76;72.14
58092;BME280;43896;48.178;11.578;2023-03-14T03:06:08;94283.03;;;10.62;72.35
58092;BME280;43896;48.178;11.578;2023-03-14T03:08:33;94298.63;;;10.70;71.44
58092;BME280;43896;48.178;11.578;2023-03-14T03:10:59;94323.16;;;10.84;70.60
58092;BME280;43896;48.178;11.578;2023-03-14T03:13:24;94306.56;;;10.77;70.81
58092;BME280;43896;48.178;11.578;2023-03-14T03:15:49;94313.53;;;10.50;70.59
58092;BME280;43896;48.178;11.578;2023-03-14T03:18:15;94311.00;;;10.77;70.68
58092;BME280;43896;48.178;11.578;2023-03-14T03:20:40;94326.44;;;10.86;70.26
58092;BME280;43896;48.178;11.578;2023-03-14T03:23:05;94316.50;;;10.82;70.34
58092;BME280;43896;48.178;11.578;2023-03-14T03:25:31;94283.25;;;10.67;69.82
58092;BME280;43896;48.178;11.578;2023-03-14T03:27:56;94315.91;;;10.86;70.03
58092;BME280;43896;48.178;11.578;2023-03-14T03:30:22;94294.38;;;10.63;69.88
58092;BME280;43896;48.178;11.578;2023-03-14T03:32:47;94295.22;;;10.70;69.68
58092;BME280;43896;48.178;11.578;2023-03-14T03:35:13;94297.69;;;10.85;69.23
58092;BME280;43896;48.178;11.578;2023-03-14T03:37:38;94292.84;;;10.88;67.97
58092;BME280;43896;48.178;11.578;2023-03-14T03:40:04;94281.69;;;10.73;68.48
58092;BME280;43896;48.178;11.578;2023-03-14T03:42:32;94309.47;;;10.47;69.86
58092;BME280;43896;48.178;11.578;2023-03-14T03:44:57;94260.09;;;10.36;68.74
58092;BME280;43896;48.178;11.578;2023-03-14T03:47:22;94285.03;;;10.54;68.95
58092;BME280;43896;48.178;11.578;2023-03-14T03:49:48;94302.44;;;10.55;68.90
58092;BME280;43896;48.178;11.578;2023-03-14T03:52:13;94278.88;;;10.33;69.39
58092;BME280;43896;48.178;11.578;2023-03-14T03:54:38;94275.06;;;10.36;68.71
58092;BME280;43896;48.178;11.578;2023-03-14T03:57:04;94303.66;;;10.52;68.60
58092;BME280;43896;48.178;11.578;2023-03-14T03:59:29;94280.91;;;10.38;68.55
58092;BME280;43896;48.178;11.578;2023-03-14T04:01:54;94272.47;;;10.42;67.97
58092;BME280;43896;48.178;11.578;2023-03-14T04:04:20;94280.97;;;10.51;68.27
58092;BME280;43896;48.178;11.578;2023-03-14T04:06:45;94293.88;;;10.39;67.63
58092;BME280;43896;48.178;11.578;2023-03-14T04:09:11;94269.22;;;10.40;67.67
58092;BME280;43896;48.178;11.578;2023-03-14T04:11:37;94267.56;;;10.32;67.13
58092;BME280;43896;48.178;11.578;2023-03-14T04:14:03;94264.47;;;10.29;66.78
58092;BME280;43896;48.178;11.578;2023-03-14T04:16:28;94280.00;;;10.24;66.49
58092;BME280;43896;48.178;11.578;2023-03-14T04:18:54;94261.94;;;10.42;65.88
58092;BME280;43896;48.178;11.578;2023-03-14T04:21:19;94283.34;;;10.39;66.62
58092;BME280;43896;48.178;11.578;2023-03-14T04:23:44;94274.69;;;10.45;66.35
58092;BME280;43896;48.178;11.578;2023-03-14T04:26:10;94274.06;;;10.37;66.19
58092;BME280;43896;48.178;11.578;2023-03-14T04:28:36;94248.53;;;10.30;65.92
58092;BME280;43896;48.178;11.578;2023-03-14T04:31:14;94251.94;;;10.31;66.00
58092;BME280;43896;48.178;11.578;2023-03-14T04:33:40;94260.00;;;10.23;66.84
58092;BME280;43896;48.178;11.578;2023-03-14T04:36:06;94264.47;;;10.29;66.13
58092;BME280;43896;48.178;11.578;2023-03-14T04:38:31;94248.88;;;10.21;66.31
58092;BME280;43896;48.178;11.578;2023-03-14T04:40:57;94252.81;;;10.38;65.98
58092;BME280;43896;48.178;11.578;2023-03-14T04:43:22;94239.13;;;10.08;66.64
58092;BME280;43896;48.178;11.578;2023-03-14T04:45:48;94260.16;;;10.14;66.63
58092;BME280;43896;48.178;11.578;2023-03-14T04:48:13;94246.19;;;10.07;66.33
58092;BME280;43896;48.178;11.578;2023-03-14T04:50:38;94262.03;;;10.27;65.80
58092;BME280;43896;48.178;11.578;2023-03-14T04:53:04;94224.78;;;10.10;65.61
58092;BME280;43896;48.178;11.578;2023-03-14T04:55:31;94244.94;;;10.31;65.67
58092;BME280;43896;48.178;11.578;2023-03-14T04:57:57;94235.13;;;10.19;65.88
58092;BME280;43896;48.178;11.578;2023-03-14T05:00:22;94193.19;;;9.90;65.94
58092;BME280;43896;48.178;11.578;2023-03-14T05:02:48;94214.34;;;10.24;65.88
58092;BME280;43896;48.178;11.578;2023-03-14T05:05:13;94183.13;;;10.01;65.54
58092;BME280;43896;48.178;11.578;2023-03-14T05:07:38;94207.44;;;10.23;65.56
58092;BME280;43896;48.178;11.578;2023-03-14T05:10:04;94204.59;;;10.18;64.95
58092;BME280;43896;48.178;11.578;2023-03-14T05:12:29;94194.47;;;10.08;65.84
58092;BME280;43896;48.178;11.578;2023-03-14T05:14:54;94182.09;;;10.02;65.23
58092;BME280;43896;48.178;11.578;2023-03-14T05:17:20;94210.06;;;10.16;65.48
58092;BME280;43896;48.178;11.578;2023-03-14T05:19:45;94194.47;;;10.08;65.36
58092;BME280;43896;48.178;11.578;2023-03-14T05:22:11;94204.59;;;10.11;65.55
58092;BME280;43896;48.178;11.578;2023-03-14T05:24:36;94194.47;;;10.08;65.83
58092;BME280;43896;48.178;11.578;2023-03-14T05:27:02;94171.75;;;9.93;65.75
58092;BME280;43896;48.178;11.578;2023-03-14T05:29:28;94183.56;;;10.11;65.58
58092;BME280;43896;48.178;11.578;2023-03-14T05:31:53;94201.94;;;10.04;65.85
58092;BME280;43896;48.178;11.578;2023-03-14T05:34:18;94233.69;;;10.09;65.62
58092;BME280;43896;48.178;11.578;2023-03-14T05:36:44;94207.41;;;10.09;65.51
58092;BME280;43896;48.178;11.578;2023-03-14T05:39:09;94217.19;;;10.29;64.43
58092;BME280;43896;48.178;11.578;2023-03-14T05:41:34;94199.91;;;10.06;64.89
58092;BME280;43896;48.178;11.578;2023-03-14T05:44:00;94220.56;;;10.23;65.10
58092;BME280;43896;48.178;11.578;2023-03-14T05:46:26;94191.03;;;10.14;65.02
58092;BME280;43896;48.178;11.578;2023-03-14T05:48:51;94216.53;;;10.20;65.61
58092;BME280;43896;48.178;11.578;2023-03-14T05:51:16;94193.69;;;10.21;65.07
58092;BME280;43896;48.178;11.578;2023-03-14T05:53:42;94200.41;;;10.30;65.00
58092;BME280;43896;48.178;11.578;2023-03-14T05:56:07;94214.50;;;10.16;65.97
58092;BME280;43896;48.178;11.578;2023-03-14T05:58:33;94207.28;;;10.31;65.25
58092;BME280;43896;48.178;11.578;2023-03-14T06:01:02;94179.94;;;10.12;65.36
58092;BME280;43896;48.178;11.578;2023-03-14T06:03:27;94192.50;;;10.23;64.92
58092;BME280;43896;48.178;11.578;2023-03-14T06:05:52;94178.97;;;10.20;65.11
58092;BME280;43896;48.178;11.578;2023-03-14T06:08:18;94179.84;;;10.34;64.73
58092;BME280;43896;48.178;11.578;2023-03-14T06:10:43;94182.22;;;10.28;64.84
58092;BME280;43896;48.178;11.578;2023-03-14T06:13:09;94191.03;;;10.14;64.70
58092;BME280;43896;48.178;11.578;2023-03-14T06:15:35;94189.53;;;10.33;63.94
58092;BME280;43896;48.178;11.578;2023-03-14T06:18:01;94196.34;;;10.27;64.16
58092;BME280;43896;48.178;11.578;2023-03-14T06:20:26;94166.19;;;10.10;64.27
58092;BME280;43896;48.178;11.578;2023-03-14T06:22:51;94189.53;;;10.33;64.16
58092;BME280;43896;48.178;11.578;2023-03-14T06:25:17;94186.75;;;10.48;63.62
58092;BME280;43896;48.178;11.578;2023-03-14T06:27:42;94187.78;;;10.60;63.05
58092;BME280;43896;48.178;11.578;2023-03-14T06:30:08;94165.53;;;10.49;63.31
58092;BME280;43896;48.178;11.578;2023-03-14T06:32:33;94159.97;;;10.31;63.53
58092;BME280;43896;48.178;11.578;2023-03-14T06:34:58;94154.78;;;10.38;63.18
58092;BME280;43896;48.178;11.578;2023-03-14T06:37:27;94144.91;;;10.46;62.95
58092;BME280;43896;48.178;11.578;2023-03-14T06:39:53;94164.97;;;10.61;62.92
58092;BME280;43896;48.178;11.578;2023-03-14T06:42:18;94136.44;;;10.58;62.31
58092;BME280;43896;48.178;11.578;2023-03-14T06:44:43;94154.66;;;10.79;61.98
58092;BME280;43896;48.178;11.578;2023-03-14T06:47:08;94150.81;;;10.75;61.31
58092;BME280;43896;48.178;11.578;2023-03-14T06:49:34;94131.38;;;10.56;61.58
58092;BME280;43896;48.178;11.578;2023-03-14T06:51:59;94136.25;;;10.59;61.43
58092;BME280;43896;48.178;11.578;2023-03-14T06:54:24;94132.78;;;10.59;61.65
58092;BME280;43896;48.178;11.578;2023-03-14T06:56:50;94162.34;;;10.87;61.02
58092;BME280;43896;48.178;11.578;2023-03-14T06:59:15;94173.47;;;10.83;61.23
58092;BME280;43896;48.178;11.578;2023-03-14T07:01:43;94165.38;;;10.71;61.12
58092;BME280;43896;48.178;11.578;2023-03-14T07:04:09;94154.22;;;10.62;61.26
58092;BME280;43896;48.178;11.578;2023-03-14T07:06:34;94189.66;;;10.73;61.02
58092;BME280;43896;48.178;11.578;2023-03-14T07:08:59;94157.66;;;10.49;61.51
58092;BME280;43896;48.178;11.578;2023-03-14T07:11:25;94196.50;;;10.61;62.13
58092;BME280;43896;48.178;11.578;2023-03-14T07:13:51;94193.88;;;10.67;61.20
58092;BME280;43896;48.178;11.578;2023-03-14T07:16:16;94188.41;;;10.62;61.42
58092;BME280;43896;48.178;11.578;2023-03-14T07:18:41;94175.47;;;10.61;61.16
58092;BME280;43896;48.178;11.578;2023-03-14T07:21:08;94193.69;;;10.76;61.34
58092;BME280;43896;48.178;11.578;2023-03-14T07:23:34;94168.19;;;10.56;61.05
58092;BME280;43896;48.178;11.578;2023-03-14T07:26:00;94190.09;;;10.90;60.62
58092;BME280;43896;48.178;11.578;2023-03-14T07:28:25;94159.50;;;10.76;60.68
58092;BME280;43896;48.178;11.578;2023-03-14T07:30:52;94187.22;;;10.72;60.87
58092;BME280;43896;48.178;11.578;2023-03-14T07:33:17;94190.69;;;10.85;60.34
58092;BME280;43896;48.178;11.578;2023-03-14T07:35:43;94174.28;;;10.77;60.63
58092;BME280;43896;48.178;11.578;2023-03-14T07:38:08;94189.88;;;10.78;60.65
58092;BME280;43896;48.178;11.578;2023-03-14T07:40:34;94189.88;;;10.85;60.29
58092;BME280;43896;48.178;11.578;2023-03-14T07:43:00;94154.66;;;10.66;60.00
58092;BME280;43896;48.178;11.578;2023-03-14T07:45:25;94161.53;;;10.80;60.12
58092;BME280;43896;48.178;11.578;2023-03-14T07:47:50;94158.91;;;10.80;59.72
58092;BME280;43896;48.178;11.578;2023-03-14T07:50:16;94169.84;;;10.97;59.53
58092;BME280;43896;48.178;11.578;2023-03-14T07:52:41;94143.56;;;11.04;58.98
58092;BME280;43896;48.178;11.578;2023-03-14T07:55:07;94146.78;;;10.99;58.96
58092;BME280;43896;48.178;11.578;2023-03-14T07:57:32;94170.84;;;11.03;59.10
58092;BME280;43896;48.178;11.578;2023-03-14T07:59:57;94142.13;;;10.95;59.27
58092;BME280;43896;48.178;11.578;2023-03-14T08:02:23;94176.53;;;11.26;58.52
58092;BME280;43896;48.178;11.578;2023-03-14T08:04:49;94165.81;;;11.35;58.74
58092;BME280;43896;48.178;11.578;2023-03-14T08:07:15;94171.66;;;11.37;58.31
58092;BME280;43896;48.178;11.578;2023-03-14T08:09:40;94178.97;;;11.35;58.05
58092;BME280;43896;48.178;11.578;2023-03-14T08:12:06;94162.38;;;11.07;58.05
58092;BME280;43896;48.178;11.578;2023-03-14T08:14:32;94141.31;;;11.14;57.62
58092;BME280;43896;48.178;11.578;2023-03-14T08:16:57;94163.56;;;11.18;57.82
58092;BME280;43896;48.178;11.578;2023-03-14T08:19:22;94185.63;;;11.44;57.68
58092;BME280;43896;48.178;11.578;2023-03-14T08:21:48;94160.16;;;11.31;57.87
58092;BME280;43896;48.178;11.578;2023-03-14T08:24:13;94156.09;;;11.29;57.32
58092;BME280;43896;48.178;11.578;2023-03-14T08:26:38;94169.03;;;11.37;57.13
58092;BME280;43896;48.178;11.578;2023-03-14T08:29:04;94173.50;;;11.36;57.54
58092;BME280;43896;48.178;11.578;2023-03-14T08:31:29;94168.41;;;11.41;56.97
58092;BME280;43896;48.178;11.578;2023-03-14T08:33:55;94164.56;;;11.44;57.14
58092;BME280;43896;48.178;11.578;2023-03-14T08:36:22;94189.44;;;11.55;56.66
58092;BME280;43896;48.178;11.578;2023-03-14T08:38:48;94171.25;;;11.40;56.68
58092;BME280;43896;48.178;11.578;2023-03-14T08:41:16;94194.53;;;11.56;57.19
58092;BME280;43896;48.178;11.578;2023-03-14T08:43:42;94191.69;;;11.44;56.90
58092;BME280;43896;48.178;11.578;2023-03-14T08:46:07;94180.56;;;11.49;56.29
58092;BME280;43896;48.178;11.578;2023-03-14T08:48:32;94178.75;;;11.30;56.91
58092;BME280;43896;48.178;11.578;2023-03-14T08:51:12;94207.47;;;11.51;57.09
58092;BME280;43896;48.178;11.578;2023-03-14T08:53:39;94177.53;;;11.12;57.07
58092;BME280;43896;48.178;11.578;2023-03-14T08:56:04;94178.13;;;11.34;56.42
58092;BME280;43896;48.178;11.578;2023-03-14T08:58:31;94185.63;;;11.37;56.08
58092;BME280;43896;48.178;11.578;2023-03-14T09:00:57;94209.91;;;11.39;56.60
58092;BME280;43896;48.178;11.578;2023-03-14T09:03:22;94214.38;;;11.19;57.06
58092;BME280;43896;48.178;11.578;2023-03-14T09:05:49;94222.88;;;11.41;56.54
58092;BME280;43896;48.178;11.578;2023-03-14T09:08:14;94212.34;;;11.41;55.83
58092;BME280;43896;48.178;11.578;2023-03-14T09:10:39;94202.84;;;11.33;56.37
58092;BME280;43896;48.178;11.578;2023-03-14T09:13:04;94210.13;;;11.44;55.75
58092;BME280;43896;48.178;11.578;2023-03-14T09:15:30;94207.47;;;11.51;56.48
58092;BME280;43896;48.178;11.578;2023-03-14T09:17:55;94220.66;;;11.64;55.86
58092;BME280;43896;48.178;11.578;2023-03-14T09:20:20;94219.78;;;11.84;55.18
58092;BME280;43896;48.178;11.578;2023-03-14T09:22:46;94201.22;;;11.66;54.90
58092;BME280;43896;48.178;11.578;2023-03-14T09:25:11;94199.38;;;11.73;55.43
58092;BME280;43896;48.178;11.578;2023-03-14T09:27:36;94214.56;;;11.71;55.41
58092;BME280;43896;48.178;11.578;2023-03-14T09:30:03;94216.75;;;11.80;55.04
58092;BME280;43896;48.178;11.578;2023-03-14T09:32:29;94205.63;;;11.78;54.90
58092;BME280;43896;48.178;11.578;2023-03-14T09:34:56;94207.28;;;11.73;55.19
58092;BME280;43896;48.178;11.578;2023-03-14T09:37:35;94209.06;;;11.79;54.58
58092;BME280;43896;48.178;11.578;2023-03-14T09:40:10;94115.63;;;11.16;55.00
58092;BME280;43896;48.178;11.578;2023-03-14T09:42:51;94120.47;;;11.19;54.71
58092;BME280;43896;48.178;11.578;2023-03-14T09:45:26;94195.50;;;11.75;53.92
58092;BME280;43896;48.178;11.578;2023-03-14T09:47:55;94189.22;;;11.90;53.96
58092;BME280;43896;48.178;11.578;2023-03-14T09:50:22;94182.75;;;11.72;53.24
58092;BME280;43896;48.178;11.578;2023-03-14T09:52:51;94190.69;;;11.66;53.38
58092;BME280;43896;48.178;11.578;2023-03-14T09:55:21;94187.19;;;11.78;53.29
58092;BME280;43896;48.178;11.578;2023-03-14T09:57:48;94171.81;;;11.75;52.95
58092;BME280;43896;48.178;11.578;2023-03-14T10:00:18;94184.38;;;11.60;54.40
58092;BME280;43896;48.178;11.578;2023-03-14T10:06:10;94185.81;;;11.62;54.79
58092;BME280;43896;48.178;11.578;2023-03-14T10:08:40;94186.78;;;11.81;54.52
58092;BME280;43896;48.178;11.578;2023-03-14T10:11:15;94191.63;;;11.98;53.97
58092;BME280;43896;48.178;11.578;2023-03-14T10:14:08;94188.16;;;12.11;53.69
58092;BME280;43896;48.178;11.578;2023-03-14T10:16:37;94175.16;;;12.16;53.96
58092;BME280;43896;48.178;11.578;2023-03-14T10:19:05;94175.47;;;11.68;54.77
58092;BME280;43896;48.178;11.578;2023-03-14T10:21:39;94170.72;;;12.10;54.15
58092;BME280;43896;48.178;11.578;2023-03-14T10:24:10;94167.66;;;12.58;52.68
58092;BME280;43896;48.178;11.578;2023-03-14T10:26:36;94165.44;;;12.87;51.59
58092;BME280;43896;48.178;11.578;2023-03-14T10:29:08;94151.25;;;13.63;50.18
58092;BME280;43896;48.178;11.578;2023-03-14T10:31:51;94140.75;;;14.91;47.06
58092;BME280;43896;48.178;11.578;2023-03-14T10:34:22;94100.31;;;14.42;46.30
58092;BME280;43896;48.178;11.578;2023-03-14T10:36:52;94141.69;;;14.18;46.89
58092;BME280;43896;48.178;11.578;2023-03-14T10:39:26;94140.31;;;13.97;47.43
58092;BME280;43896;48.178;11.578;2023-03-14T10:41:54;94156.44;;;13.70;47.78
58092;BME280;43896;48.178;11.578;2023-03-14T10:44:23;94163.75;;;14.12;47.53
58092;BME280;43896;48.178;11.578;2023-03-14T10:47:03;94148.91;;;13.55;47.61
58092;BME280;43896;48.178;11.578;2023-03-14T10:49:36;94173.13;;;13.71;48.08
58092;BME280;43896;48.178;11.578;2023-03-14T10:52:26;94141.56;;;13.32;47.21
58092;BME280;43896;48.178;11.578;2023-03-14T10:55:09;94165.16;;;13.27;47.47
58092;BME280;43896;48.178;11.578;2023-03-14T10:57:39;94161.69;;;13.01;48.56
58092;BME280;43896;48.178;11.578;2023-03-14T11:00:08;94177.31;;;13.03;48.57
58092;BME280;43896;48.178;11.578;2023-03-14T11:08:57;94188.19;;;13.13;48.53
58092;BME280;43896;48.178;11.578;2023-03-14T11:11:30;94164.88;;;12.85;48.81
58092;BME280;43896;48.178;11.578;2023-03-14T11:17:16;94162.13;;;12.98;48.51
58092;BME280;43896;48.178;11.578;2023-03-14T11:28:36;94166.59;;;13.23;47.31
58092;BME280;43896;48.178;11.578;2023-03-14T11:31:24;94156.69;;;13.68;46.87
58092;BME280;43896;48.178;11.578;2023-03-14T11:36:39;94160.50;;;13.73;45.71
58092;BME280;43896;48.178;11.578;2023-03-14T11:39:17;94156.28;;;13.46;46.21
58092;BME280;43896;48.178;11.578;2023-03-14T11:41:46;94155.16;;;13.36;46.42
58092;BME280;43896;48.178;11.578;2023-03-14T11:46:54;94124.28;;;13.36;47.16
58092;BME280;43896;48.178;11.578;2023-03-14T11:49:32;94133.97;;;13.42;46.49
58092;BME280;43896;48.178;11.578;2023-03-14T11:52:09;94147.50;;;13.27;46.86
58092;BME280;43896;48.178;11.578;2023-03-14T11:54:58;94141.06;;;13.17;47.92
58092;BME280;43896;48.178;11.578;2023-03-14T11:57:26;94132.84;;;13.31;46.74
58092;BME280;43896;48.178;11.578;2023-03-14T12:02:50;94133.38;;;13.15;47.95
58092;BME280;43896;48.178;11.578;2023-03-14T12:11:04;94119.03;;;13.04;47.08
58092;BME280;43896;48.178;11.578;2023-03-14T12:13:37;94122.50;;;13.05;47.24
58092;BME280;43896;48.178;11.578;2023-03-14T12:16:06;94131.81;;;13.07;46.94
58092;BME280;43896;48.178;11.578;2023-03-14T12:18:39;94132.31;;;12.91;47.00
58092;BME280;43896;48.178;11.578;2023-03-14T12:21:08;94134.81;;;12.86;46.91
58092;BME280;43896;48.178;11.578;2023-03-14T12:23:43;94134.47;;;12.75;47.78
58092;BME280;43896;48.178;11.578;2023-03-14T12:28:41;94144.47;;;12.99;47.52
58092;BME280;43896;48.178;11.578;2023-03-14T12:31:37;94148.41;;;12.89;47.59
58092;BME280;43896;48.178;11.578;2023-03-14T12:39:31;94128.38;;;13.32;47.37
58092;BME280;43896;48.178;11.578;2023-03-14T12:44:47;94135.88;;;13.28;46.68
58092;BME280;43896;48.178;11.578;2023-03-14T12:49:46;94137.69;;;13.78;46.41
58092;BME280;43896;48.178;11.578;2023-03-14T12:52:16;94108.91;;;13.52;47.03
58092;BME280;43896;48.178;11.578;2023-03-14T12:57:38;94149.44;;;13.39;46.68
58092;BME280;43896;48.178;11.578;2023-03-14T13:00:17;94166.19;;;13.26;46.70
58092;BME280;43896;48.178;11.578;2023-03-14T13:02:44;94150.44;;;13.12;47.16
58092;BME280;43896;48.178;11.578;2023-03-14T13:05:24;94166.97;;;13.01;47.85
58092;BME280;43896;48.178;11.578;2023-03-14T13:10:25;94156.41;;;13.01;48.39
58092;BME280;43896;48.178;11.578;2023-03-14T13:12:55;94167.78;;;12.70;49.11
58092;BME280;43896;48.178;11.578;2023-03-14T13:15:29;94172.41;;;12.81;48.72
58092;BME280;43896;48.178;11.578;2023-03-14T13:18:00;94166.53;;;12.79;48.40
58092;BME280;43896;48.178;11.578;2023-03-14T13:20:30;94177.28;;;12.78;48.21
58092;BME280;43896;48.178;11.578;2023-03-14T13:22:56;94144.94;;;12.57;48.30
58092;BME280;43896;48.178;11.578;2023-03-14T13:25:22;94136.13;;;12.38;49.03
58092;BME280;43896;48.178;11.578;2023-03-14T13:27:48;94169.94;;;12.48;49.40
58092;BME280;43896;48.178;11.578;2023-03-14T13:30:29;94161.53;;;12.64;49.13
58092;BME280;43896;48.178;11.578;2023-03-14T13:33:17;94198.28;;;12.59;50.19
58092;BME280;43896;48.178;11.578;2023-03-14T13:35:58;94207.75;;;12.28;51.36
58092;BME280;43896;48.178;11.578;2023-03-14T13:38:26;94199.03;;;12.28;52.21
58092;BME280;43896;48.178;11.578;2023-03-14T13:40:55;94215.66;;;12.28;53.07
58092;BME280;43896;48.178;11.578;2023-03-14T13:43:29;94235.00;;;11.95;53.57
58092;BME280;43896;48.178;11.578;2023-03-14T13:46:15;94222.66;;;11.69;54.60
58092;BME280;43896;48.178;11.578;2023-03-14T13:48:47;94240.72;;;11.66;54.00
58092;BME280;43896;48.178;11.578;2023-03-14T13:51:16;94240.50;;;11.54;53.96
58092;BME280;43896;48.178;11.578;2023-03-14T13:53:54;94254.06;;;11.51;54.20
58092;BME280;43896;48.178;11.578;2023-03-14T13:56:21;94261.78;;;11.59;54.00